Aeroporto :
LOGIN :

Iscrizione | Disclaimer

   EN    FR    IT 

 










Sommario :    VFR   VFR Marginale   IFR   IFR Intensivo   IFR Molto Intensivo
Visibilità : 
Base nubi : 
>= 8 km
>= 3000ft
5 / 8 km
1000 / 3000 ft
1500m / 5 km
500 / 1000 ft
800 / 1500m
200 / 500 ft
< 800m
< 200 ft
Simboli :   Temporali  Nebbia  Neve Forte  Precipitazioni Forti  Vento > 20 kt
SIGMETs :   Varie  Temporali  Ghiacco  Turbolenza  Onda orograficha  Ceneri Vulcaniche






- Altitudine del aeroporto : 443 ft
- Codice IATA : SQQ


EYSA - Siauliai

ULTIMO METAR :
  • 291150Z 20009KT 160V220 9999 FEW014 BKN016 BKN020 03/00 Q1004 R14L/19//95 R14R/19//95 WHT TEMPO SCT014 BKN019 GRN

METARs OBSOLETI :
  • 291120Z 20009KT 180V240 9999 BKN016 03/M00 Q1005 R14L/19//95 R14R/19//95 WHT NOSIG
  • 291050Z 21011KT 9999 BKN015 BKN017 BKN020 03/M00 Q1005 R14L/19//95 R14R/19//95 WHT NOSIG
  • 291020Z 20010KT 9999 FEW017 SCT026 03/M01 Q1005 R14L/19//95 R14R/19//95 BLU TEMPO SCT017 WHT
  • 290950Z 20009KT 9999 FEW013 BKN025 02/M00 Q1005 R14L/19//95 R14R/19//95 BLU TEMPO SCT017 WHT
  • 290920Z 20012KT 9999 FEW011 BKN026 02/M01 Q1005 R14L/19//95 R14R/19//95 BLU TEMPO SCT017 WHT

TAF TAF EYSA
Valido dal 29 a 12 ore il 29 a 21 ore UTC


291100Z 2912/2921 19012KT 9000 BKN020



MetMap, La meteo Aeronautica in un colpo d'occhio ! - Copyright ORBIFLY Dicembre 2007 - Disclaimer

ORBIFLY MET'MAP TEAM :

Programmazione e sviluppo : Alexandra Zaïnal
Concezione : Baudouin d'Aumeries
Aiuto per la programmazione : Marc-Olivier Méhu
Supporto tecnico e logistico : Manuel Goepfert
Aiuto per la traduzione : Arnaldo La Scala

Contatto : metmap@orbifly.com




FONTI E CREDITI :

   NOAA